Terminal Aerodrome Forecast
Issued by NWS Pueblo, CO

Home | Current Version | Previous Version | Text Only | Print | Product List | Glossary On
Versions: 1 2 3 4 5 6 7 8 9 10 11 12 13 14 15 16 17 18 19 20 21 22 23 24 25 26 27 28
000
FTUS45 KPUB 042320
TAFPUB
TAF
KPUB 042320Z 0500/0524 11009KT P6SM FEW250
     FM050300 09005KT P6SM FEW100 SCT250
     FM050700 32006KT P6SM FEW250
     FM051800 13008KT P6SM FEW250=

USA.gov is the U.S. government's official web portal to all federal, state and local government web resources and services.